Time;durP1;ratioP1;P1;durP2;ratioP2;P2;SDS_P1;SDS_P2;PMS_P1;PMS_P2;Temp;Humidity;BMP_temperature;BMP_pressure;BME280_temperature;BME280_humidity;BME280_pressure;Samples;Min_cycle;Max_cycle;Signal;HPM_P1;HPM_P2
2024/03/18 06:01:54;;;;;;;26.70;12.43;;;;;;;;;;5311286;23;20503;-74
2024/03/18 06:04:21;;;;;;;18.40;10.93;;;;;;;;;;4951819;29;20420;-74
2024/03/18 06:06:47;;;;;;;25.13;12.07;;;;;;;;;;4953117;28;20577;-75
2024/03/18 06:09:13;;;;;;;24.20;12.17;;;;;;;;;;4953391;29;20552;-74
2024/03/18 06:11:39;;;;;;;26.47;11.90;;;;;;;;;;4953629;29;20421;-73
2024/03/18 06:14:08;;;;;;;22.67;12.23;;;;;;;;;;4953418;29;20421;-73
2024/03/18 06:16:35;;;;;;;19.63;11.07;;;;;;;;;;4976760;23;20999;-73
2024/03/18 06:19:03;;;;;;;20.10;10.93;;;;;;;;;;4942599;29;20420;-74
2024/03/18 06:21:39;;;;;;;23.50;11.07;;;;;;;;;;4960398;29;20405;-73
2024/03/18 06:24:07;;;;;;;24.63;11.57;;;;;;;;;;4944683;29;20565;-75
2024/03/18 06:26:33;;;;;;;17.07;10.13;;;;;;;;;;4962167;29;20943;-74
2024/03/18 06:28:59;;;;;;;21.23;12.47;;;;;;;;;;4945464;29;20570;-73
2024/03/18 06:31:26;;;;;;;19.50;11.67;;;;;;;;;;4962091;29;20701;-75
2024/03/18 06:33:53;;;;;;;20.47;11.17;;;;;;;;;;4957807;29;20774;-72
2024/03/18 06:36:19;;;;;;;17.47;9.53;;;;;;;;;;4940028;29;20516;-76
2024/03/18 06:38:45;;;;;;;20.30;9.50;;;;;;;;;;4957384;29;20967;-75
2024/03/18 06:41:11;;;;;;;14.17;9.60;;;;;;;;;;4958606;29;20423;-72
2024/03/18 06:43:37;;;;;;;15.13;9.80;;;;;;;;;;4943998;29;20436;-75
2024/03/18 06:46:05;;;;;;;19.90;9.50;;;;;;;;;;4962452;29;20440;-73
2024/03/18 06:48:31;;;;;;;19.20;9.47;;;;;;;;;;4960467;29;20503;-73
2024/03/18 06:50:57;;;;;;;15.47;8.17;;;;;;;;;;4940114;29;20420;-72
2024/03/18 06:53:23;;;;;;;16.10;8.93;;;;;;;;;;4956959;29;20963;-74
2024/03/18 06:55:49;;;;;;;15.57;9.30;;;;;;;;;;4956891;29;20935;-72
2024/03/18 06:58:17;;;;;;;18.80;9.97;;;;;;;;;;4939822;29;20425;-74
2024/03/18 07:00:43;;;;;;;14.63;7.83;;;;;;;;;;4957149;29;20893;-74
2024/03/18 07:03:09;;;;;;;19.60;10.40;;;;;;;;;;4957371;29;20423;-74
2024/03/18 07:05:35;;;;;;;14.63;9.43;;;;;;;;;;4944329;29;20547;-74
2024/03/18 07:08:01;;;;;;;12.80;9.17;;;;;;;;;;4964636;29;20417;-74
2024/03/18 07:10:27;;;;;;;26.00;10.50;;;;;;;;;;4962674;29;20475;-73
2024/03/18 07:12:54;;;;;;;20.23;10.00;;;;;;;;;;4964378;29;20471;-75
2024/03/18 07:15:20;;;;;;;17.10;9.40;;;;;;;;;;4961694;29;20456;-75
2024/03/18 07:17:46;;;;;;;16.33;10.17;;;;;;;;;;4941774;29;20479;-74
2024/03/18 07:20:13;;;;;;;16.80;8.97;;;;;;;;;;4942078;29;20429;-74
2024/03/18 07:22:39;;;;;;;20.50;10.20;;;;;;;;;;4960669;29;20511;-73
2024/03/18 07:25:09;;;;;;;15.73;10.30;;;;;;;;;;4958804;29;20867;-73
2024/03/18 07:27:37;;;;;;;19.83;8.93;;;;;;;;;;4956080;29;20421;-72
2024/03/18 07:30:03;;;;;;;24.40;11.37;;;;;;;;;;4956558;28;20456;-75
2024/03/18 07:32:29;;;;;;;17.80;11.70;;;;;;;;;;4957586;29;20445;-74
2024/03/18 07:34:55;;;;;;;15.47;10.20;;;;;;;;;;4939580;29;20445;-75
2024/03/18 07:37:21;;;;;;;29.60;13.70;;;;;;;;;;4956319;29;20795;-75
2024/03/18 07:39:47;;;;;;;21.50;11.87;;;;;;;;;;4956223;29;20434;-75
2024/03/18 07:42:13;;;;;;;27.10;14.00;;;;;;;;;;4945700;29;20787;-74
2024/03/18 07:44:40;;;;;;;19.50;11.80;;;;;;;;;;4966327;29;20444;-74
2024/03/18 07:47:06;;;;;;;21.13;11.83;;;;;;;;;;4965140;29;20479;-74
2024/03/18 07:49:32;;;;;;;20.07;11.20;;;;;;;;;;4938951;29;20464;-74
2024/03/18 07:51:58;;;;;;;21.53;11.97;;;;;;;;;;4956533;29;20416;-73
2024/03/18 07:54:24;;;;;;;25.97;12.70;;;;;;;;;;4956372;29;20413;-74
2024/03/18 07:56:50;;;;;;;23.87;13.57;;;;;;;;;;4955751;29;20420;-73
2024/03/18 07:59:17;;;;;;;23.57;13.80;;;;;;;;;;4956068;29;20425;-72
2024/03/18 08:01:43;;;;;;;27.33;15.97;;;;;;;;;;4939296;29;20435;-75
2024/03/18 08:04:09;;;;;;;23.70;12.97;;;;;;;;;;4955913;29;20496;-73
2024/03/18 08:06:35;;;;;;;31.10;14.03;;;;;;;;;;4967078;29;20441;-73
2024/03/18 08:09:01;;;;;;;26.60;14.90;;;;;;;;;;4964920;29;20579;-72
2024/03/18 08:11:27;;;;;;;28.13;13.83;;;;;;;;;;4946363;29;20519;-71
2024/03/18 08:13:53;;;;;;;20.43;13.20;;;;;;;;;;4963615;29;20421;-73
2024/03/18 08:16:19;;;;;;;23.97;16.10;;;;;;;;;;4961814;29;20700;-71
2024/03/18 08:18:45;;;;;;;21.23;13.47;;;;;;;;;;4958354;29;20421;-72
2024/03/18 08:21:11;;;;;;;32.60;16.90;;;;;;;;;;4955302;29;20424;-74
2024/03/18 08:23:37;;;;;;;24.83;14.87;;;;;;;;;;4938069;29;20424;-75
2024/03/18 08:26:03;;;;;;;29.17;15.33;;;;;;;;;;4954913;29;20444;-72
2024/03/18 08:28:28;;;;;;;30.77;15.87;;;;;;;;;;4955227;29;20507;-75
2024/03/18 08:30:56;;;;;;;33.10;16.13;;;;;;;;;;4954948;29;20428;-75
2024/03/18 08:33:22;;;;;;;39.50;18.47;;;;;;;;;;4955911;29;20408;-76
2024/03/18 08:35:51;;;;;;;35.93;16.30;;;;;;;;;;4954284;29;20488;-75
2024/03/18 08:38:17;;;;;;;40.60;17.13;;;;;;;;;;4955292;29;20409;-75
2024/03/18 08:40:43;;;;;;;30.93;15.57;;;;;;;;;;4954975;28;20423;-73
2024/03/18 08:43:10;;;;;;;36.00;15.30;;;;;;;;;;4937485;29;20421;-73
2024/03/18 08:45:36;;;;;;;27.90;15.27;;;;;;;;;;4954481;29;20500;-74
2024/03/18 08:48:02;;;;;;;25.33;14.87;;;;;;;;;;4957629;29;20444;-75
2024/03/18 08:50:28;;;;;;;24.20;15.40;;;;;;;;;;4964772;29;20479;-71
2024/03/18 08:52:54;;;;;;;30.27;16.73;;;;;;;;;;4966176;29;20504;-72
2024/03/18 08:55:20;;;;;;;29.30;14.53;;;;;;;;;;4948569;29;20467;-73
2024/03/18 08:57:47;;;;;;;29.30;15.43;;;;;;;;;;4964058;29;20413;-72
2024/03/18 09:00:15;;;;;;;33.03;15.03;;;;;;;;;;4967836;29;20413;-76
2024/03/18 09:02:41;;;;;;;25.40;14.33;;;;;;;;;;4966679;29;20420;-74
2024/03/18 09:05:07;;;;;;;30.83;17.10;;;;;;;;;;4966196;29;20435;-72
2024/03/18 09:07:33;;;;;;;28.23;15.63;;;;;;;;;;4949837;29;20425;-72
2024/03/18 09:09:59;;;;;;;24.43;15.13;;;;;;;;;;4953154;29;20468;-73
2024/03/18 09:12:25;;;;;;;26.40;14.90;;;;;;;;;;4971272;29;20479;-73
2024/03/18 09:14:51;;;;;;;23.77;14.00;;;;;;;;;;4954886;29;20432;-74
2024/03/18 09:17:17;;;;;;;25.00;12.60;;;;;;;;;;4970721;29;20408;-73
2024/03/18 09:19:43;;;;;;;21.40;12.20;;;;;;;;;;4971856;29;20419;-74
2024/03/18 09:22:09;;;;;;;27.37;13.50;;;;;;;;;;4951969;29;20421;-73
2024/03/18 09:24:35;;;;;;;25.30;14.33;;;;;;;;;;4967372;29;20413;-73
2024/03/18 09:27:04;;;;;;;29.10;14.50;;;;;;;;;;4965377;29;20444;-74
2024/03/18 09:29:30;;;;;;;28.50;14.33;;;;;;;;;;4965553;29;20459;-74
2024/03/18 09:31:56;;;;;;;28.27;14.70;;;;;;;;;;4965255;29;20412;-75
2024/03/18 09:34:21;;;;;;;23.40;13.97;;;;;;;;;;4966739;29;20409;-74
2024/03/18 09:36:48;;;;;;;24.33;13.73;;;;;;;;;;4948736;29;20417;-74
2024/03/18 09:39:14;;;;;;;25.60;14.77;;;;;;;;;;4966533;29;20412;-73
2024/03/18 09:41:41;;;;;;;26.50;13.07;;;;;;;;;;4962748;29;20415;-73
2024/03/18 09:44:12;;;;;;;23.93;14.00;;;;;;;;;;4963076;29;20416;-74
2024/03/18 09:46:38;;;;;;;24.53;14.50;;;;;;;;;;4964795;29;20444;-73
2024/03/18 09:49:04;;;;;;;22.43;12.53;;;;;;;;;;4949932;29;20467;-73
2024/03/18 09:51:33;;;;;;;23.53;14.47;;;;;;;;;;4966867;29;20420;-73
2024/03/18 09:53:59;;;;;;;23.60;14.20;;;;;;;;;;4966503;28;20405;-73
2024/03/18 09:56:26;;;;;;;18.30;11.57;;;;;;;;;;4959582;29;20436;-73
2024/03/18 09:58:52;;;;;;;18.70;12.13;;;;;;;;;;4959185;29;20784;-73
2024/03/18 10:01:19;;;;;;;18.60;11.40;;;;;;;;;;4941516;29;20443;-73
2024/03/18 10:03:45;;;;;;;19.40;10.03;;;;;;;;;;4957745;29;20425;-72
2024/03/18 10:06:13;;;;;;;19.87;11.47;;;;;;;;;;4957619;29;20455;-74
2024/03/18 10:08:39;;;;;;;16.40;10.27;;;;;;;;;;4951938;29;20556;-73
2024/03/18 10:11:07;;;;;;;15.77;10.83;;;;;;;;;;4923250;29;20941;-71
2024/03/18 10:13:33;;;;;;;18.63;12.17;;;;;;;;;;4946459;29;20509;-73
2024/03/18 10:15:59;;;;;;;18.47;9.57;;;;;;;;;;4955840;29;20886;-73
2024/03/18 10:18:26;;;;;;;18.17;9.70;;;;;;;;;;4941196;29;20425;-72
2024/03/18 10:20:52;;;;;;;18.30;10.43;;;;;;;;;;4943750;29;20420;-74
2024/03/18 10:23:18;;;;;;;22.30;10.73;;;;;;;;;;4941288;29;20972;-71
2024/03/18 10:25:44;;;;;;;16.73;9.90;;;;;;;;;;4937740;29;20441;-74
2024/03/18 10:28:12;;;;;;;13.93;9.60;;;;;;;;;;4946989;29;21024;-71
2024/03/18 10:30:38;;;;;;;17.87;10.10;;;;;;;;;;4923453;29;20461;-74
2024/03/18 10:33:05;;;;;;;15.10;9.37;;;;;;;;;;4939577;29;20809;-72
2024/03/18 10:35:33;;;;;;;16.47;9.40;;;;;;;;;;4943261;29;20452;-72
2024/03/18 10:37:59;;;;;;;15.03;9.87;;;;;;;;;;4943949;29;20500;-72
2024/03/18 10:40:36;;;;;;;19.90;12.00;;;;;;;;;;4920730;29;20457;-72
2024/03/18 10:43:04;;;;;;;16.30;9.20;;;;;;;;;;4937778;29;20421;-76
2024/03/18 10:45:32;;;;;;;16.97;9.47;;;;;;;;;;4956161;29;20535;-73
2024/03/18 10:47:58;;;;;;;16.50;9.23;;;;;;;;;;4938942;29;20511;-74
2024/03/18 10:50:24;;;;;;;15.07;9.57;;;;;;;;;;4939906;29;20472;-73
2024/03/18 10:52:51;;;;;;;17.17;9.80;;;;;;;;;;4939285;29;20758;-72
2024/03/18 10:55:18;;;;;;;18.87;9.77;;;;;;;;;;4939023;29;20492;-73
2024/03/18 10:57:44;;;;;;;16.43;9.83;;;;;;;;;;4938396;29;20476;-74
2024/03/18 11:00:12;;;;;;;20.33;9.80;;;;;;;;;;4938348;29;20413;-74
2024/03/18 11:02:40;;;;;;;17.90;10.20;;;;;;;;;;4925931;29;20457;-72
2024/03/18 11:05:07;;;;;;;16.33;10.50;;;;;;;;;;4938571;29;20536;-73
2024/03/18 11:07:35;;;;;;;15.03;9.57;;;;;;;;;;4936756;29;20506;-72
2024/03/18 11:10:11;;;;;;;17.67;9.83;;;;;;;;;;4938678;29;20506;-71
2024/03/18 11:12:38;;;;;;;22.23;10.90;;;;;;;;;;4937380;29;20484;-74
2024/03/18 11:15:08;;;;;;;16.77;10.40;;;;;;;;;;4936993;29;20866;-76
2024/03/18 11:17:48;;;;;;;17.47;9.67;;;;;;;;;;4936774;29;21071;-76
2024/03/18 11:20:18;;;;;;;15.80;9.30;;;;;;;;;;4937787;29;20420;-75
2024/03/18 11:22:56;;;;;;;21.23;10.70;;;;;;;;;;4937703;29;20889;-76
2024/03/18 11:25:24;;;;;;;21.00;9.97;;;;;;;;;;4920307;29;20483;-75
2024/03/18 11:27:51;;;;;;;13.17;9.30;;;;;;;;;;4936903;29;20429;-75
2024/03/18 11:30:27;;;;;;;18.07;9.53;;;;;;;;;;4937266;29;20606;-76
2024/03/18 11:32:54;;;;;;;16.23;9.73;;;;;;;;;;4920008;29;20418;-75
2024/03/18 11:35:20;;;;;;;23.20;10.60;;;;;;;;;;4936940;29;20425;-75
2024/03/18 11:37:46;;;;;;;19.40;9.60;;;;;;;;;;4939554;29;20415;-72
2024/03/18 11:40:16;;;;;;;15.33;10.07;;;;;;;;;;4937157;29;20418;-71
2024/03/18 11:42:42;;;;;;;20.33;11.53;;;;;;;;;;4936927;29;20424;-73
2024/03/18 11:45:21;;;;;;;21.30;10.50;;;;;;;;;;4950767;29;20479;-73
2024/03/18 11:47:48;;;;;;;17.60;10.80;;;;;;;;;;4954209;29;20488;-73
2024/03/18 11:50:14;;;;;;;17.10;9.87;;;;;;;;;;4955855;29;20499;-74
2024/03/18 11:52:44;;;;;;;18.67;9.50;;;;;;;;;;4956019;29;20409;-73
2024/03/18 11:55:14;;;;;;;16.97;10.10;;;;;;;;;;4955884;29;20795;-72
2024/03/18 11:57:40;;;;;;;16.17;9.80;;;;;;;;;;4955175;29;20459;-72
2024/03/18 12:00:11;;;;;;;15.77;9.20;;;;;;;;;;4938013;29;20508;-73
2024/03/18 12:02:37;;;;;;;15.63;7.63;;;;;;;;;;4951674;29;20420;-73
2024/03/18 12:05:03;;;;;;;15.13;9.03;;;;;;;;;;4937895;29;20437;-73
2024/03/18 12:07:30;;;;;;;9.23;6.10;;;;;;;;;;4935667;29;20418;-73
2024/03/18 12:09:56;;;;;;;16.60;8.37;;;;;;;;;;4936617;29;20469;-73
2024/03/18 12:12:23;;;;;;;12.70;5.97;;;;;;;;;;4936545;29;20443;-73
2024/03/18 12:14:49;;;;;;;9.37;6.30;;;;;;;;;;4951462;29;20611;-73
2024/03/18 12:17:15;;;;;;;12.17;7.50;;;;;;;;;;4926814;29;20436;-74
2024/03/18 12:19:59;;;;;;;12.73;7.60;;;;;;;;;;4934812;29;20417;-73
2024/03/18 12:22:25;;;;;;;12.20;7.90;;;;;;;;;;4937695;29;20477;-72
2024/03/18 12:30:31;;;;;;;12.77;8.70;;;;;;;;;;4936410;29;21008;-73
2024/03/18 12:32:57;;;;;;;11.10;8.17;;;;;;;;;;4937678;29;20449;-73
2024/03/18 12:35:23;;;;;;;14.60;8.70;;;;;;;;;;4936247;29;20556;-72
2024/03/18 12:37:50;;;;;;;16.87;7.53;;;;;;;;;;4924335;29;20412;-73
2024/03/18 12:40:16;;;;;;;11.03;7.50;;;;;;;;;;4956511;29;20480;-72
2024/03/18 12:42:43;;;;;;;11.17;7.63;;;;;;;;;;4962425;29;20841;-74
2024/03/18 12:45:12;;;;;;;9.10;6.67;;;;;;;;;;4955484;29;20444;-73
2024/03/18 12:47:38;;;;;;;8.10;5.93;;;;;;;;;;4954518;29;20509;-73
2024/03/18 12:50:05;;;;;;;8.00;6.10;;;;;;;;;;4949778;29;20468;-74
2024/03/18 12:52:31;;;;;;;10.80;5.93;;;;;;;;;;4955228;29;20437;-73
2024/03/18 12:54:57;;;;;;;12.87;6.43;;;;;;;;;;4947892;29;20442;-73
2024/03/18 12:57:23;;;;;;;12.10;6.10;;;;;;;;;;4937102;29;20449;-72
2024/03/18 12:59:49;;;;;;;14.37;6.27;;;;;;;;;;4935451;29;20485;-72
2024/03/18 13:02:15;;;;;;;8.50;4.80;;;;;;;;;;4938283;29;20430;-71
2024/03/18 13:04:41;;;;;;;9.70;5.43;;;;;;;;;;4948767;29;20439;-71
2024/03/18 13:07:08;;;;;;;8.13;5.50;;;;;;;;;;4918032;29;20925;-72
2024/03/18 13:09:34;;;;;;;9.60;5.93;;;;;;;;;;4935072;29;20472;-72
2024/03/18 13:12:00;;;;;;;10.23;4.40;;;;;;;;;;4934439;29;20417;-71
2024/03/18 13:14:27;;;;;;;9.60;4.83;;;;;;;;;;4935496;29;20489;-71
2024/03/18 13:16:56;;;;;;;7.83;4.50;;;;;;;;;;4934981;29;20418;-72
2024/03/18 13:19:23;;;;;;;5.70;3.67;;;;;;;;;;4935276;29;20413;-72
2024/03/18 13:21:49;;;;;;;11.43;5.30;;;;;;;;;;4935319;29;20493;-72
2024/03/18 13:24:15;;;;;;;8.00;4.07;;;;;;;;;;4935766;29;20414;-73
2024/03/18 13:26:41;;;;;;;6.43;3.60;;;;;;;;;;4934029;29;20441;-72
2024/03/18 13:29:14;;;;;;;5.00;2.80;;;;;;;;;;4954926;28;20882;-71
2024/03/18 13:31:40;;;;;;;5.90;2.70;;;;;;;;;;4951253;29;20457;-71
2024/03/18 13:34:07;;;;;;;11.37;4.50;;;;;;;;;;4945571;29;21164;-72
2024/03/18 13:36:33;;;;;;;7.77;4.20;;;;;;;;;;4958075;29;20433;-73
2024/03/18 13:39:00;;;;;;;9.90;4.43;;;;;;;;;;4956937;29;20424;-72
2024/03/18 13:41:28;;;;;;;8.07;4.17;;;;;;;;;;4958691;29;20795;-73
2024/03/18 13:43:54;;;;;;;5.53;4.00;;;;;;;;;;4959858;29;20413;-73
2024/03/18 13:46:20;;;;;;;13.80;3.87;;;;;;;;;;4958034;29;20436;-73
2024/03/18 13:48:46;;;;;;;9.50;3.00;;;;;;;;;;4957817;29;20555;-72
2024/03/18 13:51:15;;;;;;;14.33;3.63;;;;;;;;;;4940673;29;20497;-72
2024/03/18 13:53:41;;;;;;;9.63;4.53;;;;;;;;;;4958482;29;20416;-73
2024/03/18 13:56:07;;;;;;;9.07;4.07;;;;;;;;;;4964104;29;20432;-73
2024/03/18 13:58:33;;;;;;;5.23;3.50;;;;;;;;;;4978966;29;20776;-73
2024/03/18 14:01:00;;;;;;;6.17;4.00;;;;;;;;;;4974962;29;20412;-74
2024/03/18 14:03:26;;;;;;;8.87;5.00;;;;;;;;;;4945257;29;20421;-73
2024/03/18 14:05:53;;;;;;;13.90;6.50;;;;;;;;;;4945997;29;20444;-73
2024/03/18 14:08:18;;;;;;;12.57;5.27;;;;;;;;;;4958463;29;20495;-72
2024/03/18 14:10:45;;;;;;;23.17;5.70;;;;;;;;;;4957755;29;20564;-73
2024/03/18 14:13:11;;;;;;;10.00;5.07;;;;;;;;;;4944596;29;20413;-73
2024/03/18 14:15:40;;;;;;;14.27;5.07;;;;;;;;;;4952156;29;20547;-74
2024/03/18 14:18:06;;;;;;;6.80;4.80;;;;;;;;;;4941175;29;20508;-74
2024/03/18 14:20:32;;;;;;;13.30;5.90;;;;;;;;;;4952139;29;20457;-73
2024/03/18 14:23:00;;;;;;;9.47;4.53;;;;;;;;;;4960874;29;20409;-72
2024/03/18 14:25:29;;;;;;;8.33;4.97;;;;;;;;;;4944394;29;20477;-73
2024/03/18 14:28:00;;;;;;;9.80;4.83;;;;;;;;;;4961095;29;20424;-73
2024/03/18 14:30:26;;;;;;;14.97;5.73;;;;;;;;;;4964654;29;20512;-73
2024/03/18 14:32:52;;;;;;;9.93;5.57;;;;;;;;;;4976869;29;20405;-74
2024/03/18 14:35:18;;;;;;;11.20;5.47;;;;;;;;;;4959534;29;20444;-74
2024/03/18 14:37:44;;;;;;;9.90;5.83;;;;;;;;;;4942357;29;20766;-73
2024/03/18 14:40:12;;;;;;;16.40;6.80;;;;;;;;;;4940905;29;20432;-71
2024/03/18 14:42:38;;;;;;;12.30;5.73;;;;;;;;;;4939385;29;20433;-71
2024/03/18 14:45:04;;;;;;;14.23;7.10;;;;;;;;;;4938909;29;20437;-74
2024/03/18 14:47:30;;;;;;;19.47;8.23;;;;;;;;;;4928608;29;20515;-71
2024/03/18 14:49:56;;;;;;;16.80;7.87;;;;;;;;;;4939230;29;20560;-71
2024/03/18 14:52:22;;;;;;;14.87;6.97;;;;;;;;;;4938551;29;20410;-70
2024/03/18 14:54:48;;;;;;;11.10;6.93;;;;;;;;;;4938207;29;20441;-71
2024/03/18 14:57:14;;;;;;;14.97;7.60;;;;;;;;;;4939207;29;20430;-72
2024/03/18 14:59:40;;;;;;;16.50;7.63;;;;;;;;;;4947282;29;20431;-72
2024/03/18 15:02:06;;;;;;;16.13;8.07;;;;;;;;;;4956841;29;20408;-71
2024/03/18 15:04:34;;;;;;;19.57;8.73;;;;;;;;;;4957081;29;20448;-70
2024/03/18 15:07:01;;;;;;;17.47;7.70;;;;;;;;;;4947213;29;20480;-70
2024/03/18 15:09:27;;;;;;;17.30;8.50;;;;;;;;;;4950537;29;20471;-71
2024/03/18 15:11:53;;;;;;;16.90;9.03;;;;;;;;;;4950602;29;20874;-72
2024/03/18 15:14:19;;;;;;;16.83;8.80;;;;;;;;;;4953995;29;20512;-72
2024/03/18 15:16:45;;;;;;;18.23;9.00;;;;;;;;;;4948540;29;20952;-70
2024/03/18 15:19:11;;;;;;;21.00;10.10;;;;;;;;;;4948490;29;20433;-71
2024/03/18 15:21:36;;;;;;;21.13;9.73;;;;;;;;;;4949119;29;20433;-72
2024/03/18 15:24:13;;;;;;;17.10;8.60;;;;;;;;;;4954062;29;20420;-76
2024/03/18 15:29:23;;;;;;;22.23;10.27;;;;;;;;;;4952500;29;20470;-74
2024/03/18 15:31:49;;;;;;;18.23;9.17;;;;;;;;;;4944135;29;20418;-73
2024/03/18 15:34:15;;;;;;;17.73;10.03;;;;;;;;;;4943334;29;20901;-72
2024/03/18 15:36:41;;;;;;;21.80;11.33;;;;;;;;;;4948392;29;20935;-73
2024/03/18 15:39:08;;;;;;;20.00;10.73;;;;;;;;;;4953887;29;20472;-74
2024/03/18 15:41:37;;;;;;;17.83;10.30;;;;;;;;;;4940367;29;20509;-73
2024/03/18 15:44:06;;;;;;;21.43;11.13;;;;;;;;;;4941417;29;20429;-72
2024/03/18 15:46:33;;;;;;;24.00;10.93;;;;;;;;;;4942260;29;20472;-72
2024/03/18 15:48:59;;;;;;;19.10;9.50;;;;;;;;;;4957134;29;20473;-75
2024/03/18 15:51:25;;;;;;;26.40;12.03;;;;;;;;;;4944282;29;20432;-72
2024/03/18 15:53:51;;;;;;;20.20;12.50;;;;;;;;;;4944741;29;20476;-73
2024/03/18 15:56:17;;;;;;;27.17;13.40;;;;;;;;;;4948908;29;20944;-73
2024/03/18 15:58:43;;;;;;;25.40;11.83;;;;;;;;;;4949423;29;20418;-72
2024/03/18 16:01:09;;;;;;;18.57;10.73;;;;;;;;;;4945480;29;20510;-73
2024/03/18 16:03:36;;;;;;;26.27;11.63;;;;;;;;;;4946655;29;20425;-73
2024/03/18 16:06:03;;;;;;;23.40;12.00;;;;;;;;;;4937930;29;20445;-73
2024/03/18 16:08:29;;;;;;;19.70;11.10;;;;;;;;;;4956923;29;20420;-74
2024/03/18 16:10:57;;;;;;;20.10;11.10;;;;;;;;;;4956041;29;20436;-73
2024/03/18 16:13:23;;;;;;;25.47;11.47;;;;;;;;;;4933302;29;20418;-73
2024/03/18 16:15:49;;;;;;;22.40;11.33;;;;;;;;;;4949872;29;20461;-72
2024/03/18 16:18:15;;;;;;;25.77;11.50;;;;;;;;;;4958761;29;20427;-74
2024/03/18 16:20:41;;;;;;;33.50;11.40;;;;;;;;;;4960801;29;20417;-73
2024/03/18 16:23:07;;;;;;;18.23;10.77;;;;;;;;;;4965533;29;20421;-74
2024/03/18 16:25:33;;;;;;;22.80;9.80;;;;;;;;;;4951353;29;20469;-74
2024/03/18 16:28:00;;;;;;;18.97;9.43;;;;;;;;;;4938347;29;20417;-74
2024/03/18 16:30:26;;;;;;;19.03;10.63;;;;;;;;;;4955162;29;20559;-74
2024/03/18 16:32:52;;;;;;;22.33;10.83;;;;;;;;;;4959571;29;20436;-73
2024/03/18 16:35:18;;;;;;;22.63;11.87;;;;;;;;;;4955579;29;20523;-73
2024/03/18 16:37:44;;;;;;;25.30;10.93;;;;;;;;;;4954546;29;20409;-72
2024/03/18 16:40:12;;;;;;;38.73;11.60;;;;;;;;;;4954904;29;20417;-73
2024/03/18 16:42:38;;;;;;;20.37;10.67;;;;;;;;;;4936631;29;20429;-74
2024/03/18 16:45:04;;;;;;;21.40;12.23;;;;;;;;;;4936053;29;20449;-74
2024/03/18 16:47:30;;;;;;;21.00;11.20;;;;;;;;;;4950054;29;20429;-73
2024/03/18 16:49:56;;;;;;;16.90;8.80;;;;;;;;;;4955805;29;20642;-74
2024/03/18 16:52:22;;;;;;;20.60;9.80;;;;;;;;;;4938243;29;20454;-73
2024/03/18 16:54:48;;;;;;;17.57;9.80;;;;;;;;;;4935703;29;20474;-73
2024/03/18 16:57:14;;;;;;;20.50;11.20;;;;;;;;;;4937187;29;20441;-74
2024/03/18 16:59:40;;;;;;;19.40;10.73;;;;;;;;;;4954947;29;20428;-72
2024/03/18 17:02:07;;;;;;;24.20;11.70;;;;;;;;;;4954922;28;20432;-73
2024/03/18 17:04:33;;;;;;;20.60;10.60;;;;;;;;;;4953573;29;20420;-74
2024/03/18 17:06:59;;;;;;;18.53;9.97;;;;;;;;;;4954303;29;20435;-73
2024/03/18 17:09:25;;;;;;;26.40;12.57;;;;;;;;;;4947828;29;20475;-73
2024/03/18 17:11:52;;;;;;;16.80;9.73;;;;;;;;;;4957066;29;20507;-72
2024/03/18 17:14:21;;;;;;;21.30;11.70;;;;;;;;;;4957979;29;20512;-72
2024/03/18 17:16:47;;;;;;;22.50;9.50;;;;;;;;;;4966978;29;20452;-71
2024/03/18 17:19:16;;;;;;;19.33;9.90;;;;;;;;;;4969938;29;20417;-72
2024/03/18 17:21:41;;;;;;;22.47;12.13;;;;;;;;;;4969915;29;20413;-75
2024/03/18 17:24:08;;;;;;;21.27;11.30;;;;;;;;;;4965672;29;20427;-73
2024/03/18 17:26:34;;;;;;;24.07;11.80;;;;;;;;;;4958841;29;20452;-72
2024/03/18 17:29:00;;;;;;;19.50;11.83;;;;;;;;;;4957163;29;20460;-72
2024/03/18 17:31:26;;;;;;;22.63;9.30;;;;;;;;;;4954774;29;20495;-71
2024/03/18 17:33:52;;;;;;;21.00;11.70;;;;;;;;;;4942860;29;20453;-71
2024/03/18 17:36:18;;;;;;;26.67;11.23;;;;;;;;;;4935073;29;20445;-74
2024/03/18 17:38:44;;;;;;;22.93;11.47;;;;;;;;;;4936152;29;20422;-73
2024/03/18 17:41:10;;;;;;;25.27;11.20;;;;;;;;;;4955801;29;20440;-73
2024/03/18 17:43:36;;;;;;;21.97;11.67;;;;;;;;;;4957388;29;20908;-75
2024/03/18 17:46:02;;;;;;;22.87;12.43;;;;;;;;;;4954795;29;20435;-75
2024/03/18 17:48:33;;;;;;;24.10;12.13;;;;;;;;;;4943374;29;20428;-74
2024/03/18 17:51:01;;;;;;;23.50;12.83;;;;;;;;;;4935099;29;20414;-74
2024/03/18 17:53:28;;;;;;;22.90;11.23;;;;;;;;;;4938448;29;20402;-73
2024/03/18 17:55:54;;;;;;;31.87;11.97;;;;;;;;;;4947402;29;20486;-72
2024/03/18 17:58:20;;;;;;;28.67;13.00;;;;;;;;;;4946895;29;20444;-73
2024/03/18 18:00:46;;;;;;;25.20;12.47;;;;;;;;;;4945596;29;20753;-75
2024/03/18 18:03:12;;;;;;;30.27;13.97;;;;;;;;;;4951486;29;20444;-76
2024/03/18 18:05:38;;;;;;;27.07;12.90;;;;;;;;;;4935004;29;20450;-74
2024/03/18 18:08:08;;;;;;;29.77;13.67;;;;;;;;;;4937252;29;20787;-74
2024/03/18 18:10:34;;;;;;;29.53;14.87;;;;;;;;;;4961960;29;20471;-72
2024/03/18 18:13:00;;;;;;;31.77;15.07;;;;;;;;;;4954925;29;20486;-75
2024/03/18 18:15:26;;;;;;;25.30;12.90;;;;;;;;;;4944597;29;20462;-73
2024/03/18 18:17:52;;;;;;;34.17;16.40;;;;;;;;;;4929827;29;20429;-75
2024/03/18 18:20:18;;;;;;;34.00;17.53;;;;;;;;;;4940829;29;20433;-74
2024/03/18 18:22:44;;;;;;;28.80;15.03;;;;;;;;;;4938999;29;20426;-75
2024/03/18 18:25:12;;;;;;;27.53;14.00;;;;;;;;;;4938740;29;20445;-75
2024/03/18 18:27:38;;;;;;;27.73;13.87;;;;;;;;;;4954648;29;20429;-72
2024/03/18 18:30:04;;;;;;;31.90;16.10;;;;;;;;;;4943723;29;20816;-72
2024/03/18 18:32:30;;;;;;;33.60;14.63;;;;;;;;;;4946342;29;20839;-72
2024/03/18 18:34:56;;;;;;;25.60;13.30;;;;;;;;;;4947874;29;20504;-73
2024/03/18 18:37:24;;;;;;;24.50;13.70;;;;;;;;;;4946667;29;20803;-72
2024/03/18 18:39:50;;;;;;;27.53;14.60;;;;;;;;;;4947786;29;20453;-71
2024/03/18 18:42:16;;;;;;;25.07;12.87;;;;;;;;;;4939845;29;20422;-72
2024/03/18 18:44:44;;;;;;;27.70;15.13;;;;;;;;;;4950702;29;20440;-72
2024/03/18 18:47:10;;;;;;;28.27;16.07;;;;;;;;;;4949442;29;20425;-73
2024/03/18 18:49:36;;;;;;;34.53;18.67;;;;;;;;;;4937630;29;20477;-72
2024/03/18 18:52:03;;;;;;;40.93;18.70;;;;;;;;;;4921606;29;20433;-71
2024/03/18 18:54:29;;;;;;;38.03;18.73;;;;;;;;;;4937940;29;20847;-72
2024/03/18 18:56:55;;;;;;;37.07;18.00;;;;;;;;;;4950329;29;20413;-71
2024/03/18 18:59:26;;;;;;;42.70;20.37;;;;;;;;;;4940945;29;20426;-74
2024/03/18 19:01:52;;;;;;;39.23;18.57;;;;;;;;;;4949855;29;20453;-76
2024/03/18 19:04:18;;;;;;;47.73;19.30;;;;;;;;;;4939448;29;20434;-75
2024/03/18 19:06:45;;;;;;;40.40;18.50;;;;;;;;;;4949108;29;20436;-75
2024/03/18 19:09:11;;;;;;;33.00;18.00;;;;;;;;;;4947910;29;20464;-75
2024/03/18 19:11:37;;;;;;;41.07;17.93;;;;;;;;;;4926088;29;20441;-74
2024/03/18 19:14:04;;;;;;;36.23;15.77;;;;;;;;;;4951105;29;20429;-74
2024/03/18 19:16:30;;;;;;;37.73;16.97;;;;;;;;;;4945478;29;20845;-73
2024/03/18 19:18:56;;;;;;;41.93;19.20;;;;;;;;;;4943114;29;20431;-74
2024/03/18 19:21:23;;;;;;;42.07;17.63;;;;;;;;;;4941709;29;20429;-74
2024/03/18 19:23:49;;;;;;;34.10;17.20;;;;;;;;;;4942163;29;20512;-74
2024/03/18 19:26:19;;;;;;;33.93;16.30;;;;;;;;;;4937930;29;20465;-74
2024/03/18 19:28:45;;;;;;;33.50;15.30;;;;;;;;;;4948562;29;20431;-73
2024/03/18 19:31:12;;;;;;;31.50;17.30;;;;;;;;;;4938757;29;20477;-73
2024/03/18 19:33:38;;;;;;;36.73;17.40;;;;;;;;;;4924479;29;20436;-74
2024/03/18 19:36:04;;;;;;;27.43;16.40;;;;;;;;;;4922285;29;20472;-72
2024/03/18 19:38:30;;;;;;;31.70;17.80;;;;;;;;;;4939460;29;20418;-72
2024/03/18 19:40:56;;;;;;;33.60;16.67;;;;;;;;;;4944240;29;20889;-73
2024/03/18 19:43:22;;;;;;;36.03;17.20;;;;;;;;;;4946544;29;20424;-72
2024/03/18 19:45:48;;;;;;;33.73;15.00;;;;;;;;;;4937616;29;20445;-73
2024/03/18 19:48:14;;;;;;;37.10;18.20;;;;;;;;;;4937157;29;20429;-72
2024/03/18 19:50:40;;;;;;;33.30;15.27;;;;;;;;;;4945116;29;20475;-73
2024/03/18 19:53:08;;;;;;;33.83;15.50;;;;;;;;;;4938779;29;20417;-72
2024/03/18 19:55:35;;;;;;;31.77;15.80;;;;;;;;;;4950706;29;20446;-72
2024/03/18 19:58:01;;;;;;;32.10;15.43;;;;;;;;;;4938550;29;20430;-73
2024/03/18 20:00:26;;;;;;;34.63;15.47;;;;;;;;;;4946276;29;20484;-72
2024/03/18 20:02:52;;;;;;;35.53;15.47;;;;;;;;;;4951772;29;20421;-72
2024/03/18 20:05:18;;;;;;;29.57;14.30;;;;;;;;;;4944281;29;20515;-72
2024/03/18 20:07:44;;;;;;;30.80;15.63;;;;;;;;;;4937659;29;20481;-72
2024/03/18 20:10:11;;;;;;;37.53;17.90;;;;;;;;;;4927327;29;20500;-72
2024/03/18 20:12:44;;;;;;;39.83;16.93;;;;;;;;;;4955234;29;20464;-73
2024/03/18 20:15:14;;;;;;;39.13;18.03;;;;;;;;;;4924560;29;20465;-73
2024/03/18 20:17:40;;;;;;;35.60;19.53;;;;;;;;;;4943983;29;20990;-72
2024/03/18 20:20:10;;;;;;;50.87;20.57;;;;;;;;;;4954594;29;20416;-74
2024/03/18 20:22:46;;;;;;;35.57;16.70;;;;;;;;;;4939713;29;20500;-74
2024/03/18 20:25:14;;;;;;;42.47;18.30;;;;;;;;;;4936842;29;20464;-73
2024/03/18 20:27:41;;;;;;;40.60;19.23;;;;;;;;;;4936594;29;20429;-72
2024/03/18 20:30:14;;;;;;;39.27;18.40;;;;;;;;;;4952025;29;20468;-73